sensor_id;sensor_type;location;lat;lon;timestamp;P1;durP1;ratioP1;P2;durP2;ratioP2
76176;SDS011;64938;47.696;8.066;2024-01-15T00:01:30;10.83;;;7.40;;
76176;SDS011;64938;47.696;8.066;2024-01-15T00:03:57;10.43;;;6.93;;
76176;SDS011;64938;47.696;8.066;2024-01-15T00:06:24;16.23;;;6.60;;
76176;SDS011;64938;47.696;8.066;2024-01-15T00:08:52;15.53;;;7.93;;
76176;SDS011;64938;47.696;8.066;2024-01-15T00:11:18;11.40;;;6.33;;
76176;SDS011;64938;47.696;8.066;2024-01-15T00:13:44;12.93;;;6.80;;
76176;SDS011;64938;47.696;8.066;2024-01-15T00:16:10;13.70;;;7.70;;
76176;SDS011;64938;47.696;8.066;2024-01-15T00:18:37;10.93;;;7.13;;
76176;SDS011;64938;47.696;8.066;2024-01-15T00:21:03;13.27;;;8.33;;
76176;SDS011;64938;47.696;8.066;2024-01-15T00:23:29;11.63;;;8.17;;
76176;SDS011;64938;47.696;8.066;2024-01-15T00:25:55;15.10;;;8.53;;
76176;SDS011;64938;47.696;8.066;2024-01-15T00:28:21;18.10;;;8.60;;
76176;SDS011;64938;47.696;8.066;2024-01-15T00:30:47;15.10;;;9.80;;
76176;SDS011;64938;47.696;8.066;2024-01-15T00:33:13;14.40;;;9.37;;
76176;SDS011;64938;47.696;8.066;2024-01-15T00:35:40;15.27;;;9.63;;
76176;SDS011;64938;47.696;8.066;2024-01-15T00:38:06;13.30;;;7.93;;
76176;SDS011;64938;47.696;8.066;2024-01-15T00:40:32;12.53;;;8.13;;
76176;SDS011;64938;47.696;8.066;2024-01-15T00:42:58;17.10;;;9.77;;
76176;SDS011;64938;47.696;8.066;2024-01-15T00:45:25;13.20;;;8.17;;
76176;SDS011;64938;47.696;8.066;2024-01-15T00:47:52;16.23;;;8.80;;
76176;SDS011;64938;47.696;8.066;2024-01-15T00:50:18;15.20;;;7.50;;
76176;SDS011;64938;47.696;8.066;2024-01-15T00:52:45;17.13;;;9.53;;
76176;SDS011;64938;47.696;8.066;2024-01-15T00:55:12;14.50;;;8.23;;
76176;SDS011;64938;47.696;8.066;2024-01-15T00:57:39;17.97;;;9.33;;
76176;SDS011;64938;47.696;8.066;2024-01-15T01:00:06;14.80;;;8.80;;
76176;SDS011;64938;47.696;8.066;2024-01-15T01:02:34;15.50;;;9.07;;
76176;SDS011;64938;47.696;8.066;2024-01-15T01:05:00;14.50;;;10.03;;
76176;SDS011;64938;47.696;8.066;2024-01-15T01:07:27;16.73;;;10.37;;
76176;SDS011;64938;47.696;8.066;2024-01-15T01:09:53;19.10;;;10.00;;
76176;SDS011;64938;47.696;8.066;2024-01-15T01:12:19;15.87;;;8.83;;
76176;SDS011;64938;47.696;8.066;2024-01-15T01:14:45;12.70;;;7.63;;
76176;SDS011;64938;47.696;8.066;2024-01-15T01:17:11;12.10;;;7.50;;
76176;SDS011;64938;47.696;8.066;2024-01-15T01:19:37;11.13;;;7.70;;
76176;SDS011;64938;47.696;8.066;2024-01-15T01:22:03;10.87;;;7.47;;
76176;SDS011;64938;47.696;8.066;2024-01-15T01:24:29;11.80;;;6.63;;
76176;SDS011;64938;47.696;8.066;2024-01-15T01:26:55;9.83;;;6.90;;
76176;SDS011;64938;47.696;8.066;2024-01-15T01:29:21;11.90;;;6.13;;
76176;SDS011;64938;47.696;8.066;2024-01-15T01:31:48;11.47;;;6.73;;
76176;SDS011;64938;47.696;8.066;2024-01-15T01:34:14;10.40;;;5.93;;
76176;SDS011;64938;47.696;8.066;2024-01-15T01:36:42;9.60;;;6.30;;
76176;SDS011;64938;47.696;8.066;2024-01-15T01:39:08;8.43;;;5.40;;
76176;SDS011;64938;47.696;8.066;2024-01-15T01:41:34;9.50;;;5.33;;
76176;SDS011;64938;47.696;8.066;2024-01-15T01:44:00;8.53;;;5.20;;
76176;SDS011;64938;47.696;8.066;2024-01-15T01:46:27;9.47;;;5.30;;
76176;SDS011;64938;47.696;8.066;2024-01-15T01:48:53;8.20;;;4.10;;
76176;SDS011;64938;47.696;8.066;2024-01-15T01:51:21;8.83;;;4.43;;
76176;SDS011;64938;47.696;8.066;2024-01-15T01:53:49;9.60;;;4.47;;
76176;SDS011;64938;47.696;8.066;2024-01-15T01:56:15;6.87;;;3.77;;
76176;SDS011;64938;47.696;8.066;2024-01-15T01:58:42;7.67;;;4.37;;
76176;SDS011;64938;47.696;8.066;2024-01-15T02:01:08;6.60;;;4.27;;
76176;SDS011;64938;47.696;8.066;2024-01-15T02:03:34;5.53;;;3.33;;
76176;SDS011;64938;47.696;8.066;2024-01-15T02:06:00;4.90;;;3.30;;
76176;SDS011;64938;47.696;8.066;2024-01-15T02:08:26;6.20;;;3.70;;
76176;SDS011;64938;47.696;8.066;2024-01-15T02:10:52;5.40;;;3.50;;
76176;SDS011;64938;47.696;8.066;2024-01-15T02:13:19;5.60;;;3.53;;
76176;SDS011;64938;47.696;8.066;2024-01-15T02:15:46;4.50;;;3.27;;
76176;SDS011;64938;47.696;8.066;2024-01-15T02:18:12;7.70;;;3.63;;
76176;SDS011;64938;47.696;8.066;2024-01-15T02:20:42;3.90;;;3.03;;
76176;SDS011;64938;47.696;8.066;2024-01-15T02:23:09;7.33;;;3.60;;
76176;SDS011;64938;47.696;8.066;2024-01-15T02:25:38;5.67;;;3.83;;
76176;SDS011;64938;47.696;8.066;2024-01-15T02:28:07;5.10;;;3.00;;
76176;SDS011;64938;47.696;8.066;2024-01-15T02:30:37;7.03;;;3.57;;
76176;SDS011;64938;47.696;8.066;2024-01-15T02:33:05;8.77;;;4.33;;
76176;SDS011;64938;47.696;8.066;2024-01-15T02:35:31;5.87;;;3.60;;
76176;SDS011;64938;47.696;8.066;2024-01-15T02:37:58;5.67;;;3.60;;
76176;SDS011;64938;47.696;8.066;2024-01-15T02:40:24;7.80;;;4.30;;
76176;SDS011;64938;47.696;8.066;2024-01-15T02:42:50;8.30;;;4.60;;
76176;SDS011;64938;47.696;8.066;2024-01-15T02:45:16;6.90;;;3.53;;
76176;SDS011;64938;47.696;8.066;2024-01-15T02:47:42;7.13;;;3.80;;
76176;SDS011;64938;47.696;8.066;2024-01-15T02:50:08;8.40;;;4.50;;
76176;SDS011;64938;47.696;8.066;2024-01-15T02:55:59;8.90;;;3.60;;
76176;SDS011;64938;47.696;8.066;2024-01-15T02:58:26;6.80;;;3.60;;
76176;SDS011;64938;47.696;8.066;2024-01-15T03:00:52;6.90;;;4.17;;
76176;SDS011;64938;47.696;8.066;2024-01-15T03:03:18;6.93;;;3.97;;
76176;SDS011;64938;47.696;8.066;2024-01-15T03:05:44;9.50;;;4.00;;
76176;SDS011;64938;47.696;8.066;2024-01-15T03:08:10;5.20;;;3.83;;
76176;SDS011;64938;47.696;8.066;2024-01-15T03:10:36;9.90;;;4.40;;
76176;SDS011;64938;47.696;8.066;2024-01-15T03:13:02;8.10;;;4.73;;
76176;SDS011;64938;47.696;8.066;2024-01-15T03:15:28;6.87;;;4.00;;
76176;SDS011;64938;47.696;8.066;2024-01-15T03:17:54;10.40;;;5.50;;
76176;SDS011;64938;47.696;8.066;2024-01-15T03:20:20;13.07;;;5.40;;
76176;SDS011;64938;47.696;8.066;2024-01-15T03:22:46;11.73;;;5.87;;
76176;SDS011;64938;47.696;8.066;2024-01-15T03:25:12;13.13;;;5.87;;
76176;SDS011;64938;47.696;8.066;2024-01-15T03:27:38;11.33;;;5.73;;
76176;SDS011;64938;47.696;8.066;2024-01-15T03:30:07;11.47;;;6.00;;
76176;SDS011;64938;47.696;8.066;2024-01-15T03:32:33;10.60;;;5.63;;
76176;SDS011;64938;47.696;8.066;2024-01-15T03:34:59;14.53;;;6.23;;
76176;SDS011;64938;47.696;8.066;2024-01-15T03:37:26;11.37;;;4.90;;
76176;SDS011;64938;47.696;8.066;2024-01-15T03:39:51;11.37;;;6.60;;
76176;SDS011;64938;47.696;8.066;2024-01-15T03:42:17;13.50;;;6.10;;
76176;SDS011;64938;47.696;8.066;2024-01-15T03:44:44;16.40;;;6.00;;
76176;SDS011;64938;47.696;8.066;2024-01-15T03:47:09;9.97;;;5.50;;
76176;SDS011;64938;47.696;8.066;2024-01-15T03:49:35;10.23;;;5.00;;
76176;SDS011;64938;47.696;8.066;2024-01-15T03:52:01;11.17;;;4.90;;
76176;SDS011;64938;47.696;8.066;2024-01-15T03:54:27;9.07;;;5.13;;
76176;SDS011;64938;47.696;8.066;2024-01-15T03:56:53;8.97;;;4.70;;
76176;SDS011;64938;47.696;8.066;2024-01-15T03:59:19;9.97;;;5.30;;
76176;SDS011;64938;47.696;8.066;2024-01-15T04:01:49;9.93;;;4.87;;
76176;SDS011;64938;47.696;8.066;2024-01-15T04:04:17;7.90;;;4.43;;
76176;SDS011;64938;47.696;8.066;2024-01-15T04:06:43;7.97;;;4.47;;
76176;SDS011;64938;47.696;8.066;2024-01-15T04:09:09;9.37;;;5.10;;
76176;SDS011;64938;47.696;8.066;2024-01-15T04:11:37;6.70;;;3.67;;
76176;SDS011;64938;47.696;8.066;2024-01-15T04:14:03;8.00;;;4.80;;
76176;SDS011;64938;47.696;8.066;2024-01-15T04:16:29;8.87;;;4.17;;
76176;SDS011;64938;47.696;8.066;2024-01-15T04:18:55;5.00;;;3.10;;
76176;SDS011;64938;47.696;8.066;2024-01-15T04:21:20;8.60;;;4.37;;
76176;SDS011;64938;47.696;8.066;2024-01-15T04:23:46;8.00;;;4.23;;
76176;SDS011;64938;47.696;8.066;2024-01-15T04:26:15;7.23;;;4.07;;
76176;SDS011;64938;47.696;8.066;2024-01-15T04:28:41;5.40;;;3.70;;
76176;SDS011;64938;47.696;8.066;2024-01-15T04:31:07;6.13;;;4.03;;
76176;SDS011;64938;47.696;8.066;2024-01-15T04:33:33;5.63;;;3.13;;
76176;SDS011;64938;47.696;8.066;2024-01-15T04:36:03;3.83;;;3.00;;
76176;SDS011;64938;47.696;8.066;2024-01-15T04:38:30;4.43;;;2.83;;
76176;SDS011;64938;47.696;8.066;2024-01-15T04:40:57;6.00;;;3.43;;
76176;SDS011;64938;47.696;8.066;2024-01-15T04:43:23;6.13;;;3.60;;
76176;SDS011;64938;47.696;8.066;2024-01-15T04:45:49;5.37;;;3.57;;
76176;SDS011;64938;47.696;8.066;2024-01-15T04:48:15;5.00;;;3.03;;
76176;SDS011;64938;47.696;8.066;2024-01-15T04:50:42;13.43;;;3.60;;
76176;SDS011;64938;47.696;8.066;2024-01-15T04:53:08;4.60;;;3.20;;
76176;SDS011;64938;47.696;8.066;2024-01-15T04:55:34;6.30;;;3.53;;
76176;SDS011;64938;47.696;8.066;2024-01-15T04:58:00;6.63;;;3.33;;
76176;SDS011;64938;47.696;8.066;2024-01-15T05:00:27;5.33;;;3.33;;
76176;SDS011;64938;47.696;8.066;2024-01-15T05:02:55;4.47;;;3.27;;
76176;SDS011;64938;47.696;8.066;2024-01-15T05:05:21;4.67;;;3.53;;
76176;SDS011;64938;47.696;8.066;2024-01-15T05:07:47;5.97;;;3.17;;
76176;SDS011;64938;47.696;8.066;2024-01-15T05:10:13;7.87;;;4.07;;
76176;SDS011;64938;47.696;8.066;2024-01-15T05:12:39;6.17;;;3.23;;
76176;SDS011;64938;47.696;8.066;2024-01-15T05:15:05;10.27;;;3.93;;
76176;SDS011;64938;47.696;8.066;2024-01-15T05:17:31;6.53;;;4.20;;
76176;SDS011;64938;47.696;8.066;2024-01-15T05:19:57;7.00;;;4.33;;
76176;SDS011;64938;47.696;8.066;2024-01-15T05:22:23;8.10;;;4.07;;
76176;SDS011;64938;47.696;8.066;2024-01-15T05:24:50;5.57;;;3.77;;
76176;SDS011;64938;47.696;8.066;2024-01-15T05:27:15;5.80;;;3.33;;
76176;SDS011;64938;47.696;8.066;2024-01-15T05:29:41;4.93;;;3.80;;
76176;SDS011;64938;47.696;8.066;2024-01-15T05:32:07;10.73;;;4.47;;
76176;SDS011;64938;47.696;8.066;2024-01-15T05:34:33;5.73;;;3.70;;
76176;SDS011;64938;47.696;8.066;2024-01-15T05:36:59;6.93;;;3.93;;
76176;SDS011;64938;47.696;8.066;2024-01-15T05:39:26;6.73;;;4.20;;
76176;SDS011;64938;47.696;8.066;2024-01-15T05:41:52;6.17;;;3.30;;
76176;SDS011;64938;47.696;8.066;2024-01-15T05:44:19;6.67;;;3.53;;
76176;SDS011;64938;47.696;8.066;2024-01-15T05:46:45;7.57;;;4.10;;
76176;SDS011;64938;47.696;8.066;2024-01-15T05:49:11;6.93;;;4.10;;
76176;SDS011;64938;47.696;8.066;2024-01-15T05:51:39;6.27;;;3.90;;
76176;SDS011;64938;47.696;8.066;2024-01-15T05:54:05;7.47;;;3.50;;
76176;SDS011;64938;47.696;8.066;2024-01-15T05:56:31;6.40;;;4.30;;
76176;SDS011;64938;47.696;8.066;2024-01-15T05:58:57;8.73;;;4.20;;
76176;SDS011;64938;47.696;8.066;2024-01-15T06:01:23;5.83;;;4.07;;
76176;SDS011;64938;47.696;8.066;2024-01-15T06:03:49;7.80;;;4.67;;
76176;SDS011;64938;47.696;8.066;2024-01-15T06:06:15;6.80;;;3.77;;
76176;SDS011;64938;47.696;8.066;2024-01-15T06:08:41;7.53;;;4.10;;
76176;SDS011;64938;47.696;8.066;2024-01-15T06:11:07;7.27;;;4.60;;
76176;SDS011;64938;47.696;8.066;2024-01-15T06:13:34;7.60;;;4.10;;
76176;SDS011;64938;47.696;8.066;2024-01-15T06:16:00;6.57;;;4.20;;
76176;SDS011;64938;47.696;8.066;2024-01-15T06:18:26;7.50;;;4.30;;
76176;SDS011;64938;47.696;8.066;2024-01-15T06:20:53;10.67;;;4.90;;
76176;SDS011;64938;47.696;8.066;2024-01-15T06:23:18;7.83;;;4.50;;
76176;SDS011;64938;47.696;8.066;2024-01-15T06:25:45;9.33;;;4.33;;
76176;SDS011;64938;47.696;8.066;2024-01-15T06:28:11;6.40;;;3.93;;
76176;SDS011;64938;47.696;8.066;2024-01-15T06:30:37;10.17;;;5.40;;
76176;SDS011;64938;47.696;8.066;2024-01-15T06:33:04;6.80;;;3.93;;
76176;SDS011;64938;47.696;8.066;2024-01-15T06:35:30;7.33;;;3.87;;
76176;SDS011;64938;47.696;8.066;2024-01-15T06:37:57;6.00;;;3.90;;
76176;SDS011;64938;47.696;8.066;2024-01-15T06:40:23;8.00;;;3.97;;
76176;SDS011;64938;47.696;8.066;2024-01-15T06:42:49;7.87;;;3.90;;
76176;SDS011;64938;47.696;8.066;2024-01-15T06:45:15;4.93;;;3.63;;
76176;SDS011;64938;47.696;8.066;2024-01-15T06:47:41;6.00;;;3.47;;
76176;SDS011;64938;47.696;8.066;2024-01-15T06:50:08;5.73;;;4.23;;
76176;SDS011;64938;47.696;8.066;2024-01-15T06:52:34;7.23;;;3.70;;
76176;SDS011;64938;47.696;8.066;2024-01-15T06:55:01;5.00;;;3.00;;
76176;SDS011;64938;47.696;8.066;2024-01-15T06:57:27;6.10;;;3.10;;
76176;SDS011;64938;47.696;8.066;2024-01-15T06:59:53;5.57;;;3.30;;
76176;SDS011;64938;47.696;8.066;2024-01-15T07:02:19;5.33;;;3.00;;
76176;SDS011;64938;47.696;8.066;2024-01-15T07:04:45;3.87;;;2.70;;
76176;SDS011;64938;47.696;8.066;2024-01-15T07:07:12;5.40;;;3.33;;
76176;SDS011;64938;47.696;8.066;2024-01-15T07:09:38;4.93;;;2.87;;
76176;SDS011;64938;47.696;8.066;2024-01-15T07:12:04;3.77;;;2.93;;
76176;SDS011;64938;47.696;8.066;2024-01-15T07:14:30;4.40;;;2.70;;
76176;SDS011;64938;47.696;8.066;2024-01-15T07:16:56;4.00;;;2.97;;
76176;SDS011;64938;47.696;8.066;2024-01-15T07:19:22;2.47;;;2.10;;
76176;SDS011;64938;47.696;8.066;2024-01-15T07:21:48;6.03;;;2.83;;
76176;SDS011;64938;47.696;8.066;2024-01-15T07:24:14;4.70;;;3.07;;
76176;SDS011;64938;47.696;8.066;2024-01-15T07:26:41;5.83;;;3.13;;
76176;SDS011;64938;47.696;8.066;2024-01-15T07:29:07;4.13;;;2.80;;
76176;SDS011;64938;47.696;8.066;2024-01-15T07:31:33;3.87;;;2.67;;
76176;SDS011;64938;47.696;8.066;2024-01-15T07:33:59;4.50;;;2.77;;
76176;SDS011;64938;47.696;8.066;2024-01-15T07:36:25;4.60;;;2.93;;
76176;SDS011;64938;47.696;8.066;2024-01-15T07:38:51;4.10;;;2.80;;
76176;SDS011;64938;47.696;8.066;2024-01-15T07:41:17;6.60;;;3.50;;
76176;SDS011;64938;47.696;8.066;2024-01-15T07:43:43;3.63;;;3.00;;
76176;SDS011;64938;47.696;8.066;2024-01-15T07:46:09;4.47;;;2.80;;
76176;SDS011;64938;47.696;8.066;2024-01-15T07:48:35;8.53;;;2.73;;
76176;SDS011;64938;47.696;8.066;2024-01-15T07:51:01;5.80;;;3.00;;
76176;SDS011;64938;47.696;8.066;2024-01-15T07:53:27;6.77;;;4.03;;
76176;SDS011;64938;47.696;8.066;2024-01-15T07:55:53;11.40;;;4.10;;
76176;SDS011;64938;47.696;8.066;2024-01-15T07:58:19;6.33;;;3.50;;
76176;SDS011;64938;47.696;8.066;2024-01-15T08:00:45;9.10;;;3.97;;
76176;SDS011;64938;47.696;8.066;2024-01-15T08:03:11;4.70;;;3.40;;
76176;SDS011;64938;47.696;8.066;2024-01-15T08:05:38;4.80;;;3.20;;
76176;SDS011;64938;47.696;8.066;2024-01-15T08:08:04;5.00;;;3.50;;
76176;SDS011;64938;47.696;8.066;2024-01-15T08:10:30;6.70;;;4.23;;
76176;SDS011;64938;47.696;8.066;2024-01-15T08:12:56;4.00;;;3.10;;
76176;SDS011;64938;47.696;8.066;2024-01-15T08:15:22;4.20;;;2.50;;
76176;SDS011;64938;47.696;8.066;2024-01-15T08:17:48;4.97;;;2.60;;
76176;SDS011;64938;47.696;8.066;2024-01-15T08:20:14;3.10;;;2.43;;
76176;SDS011;64938;47.696;8.066;2024-01-15T08:22:41;3.10;;;2.40;;
76176;SDS011;64938;47.696;8.066;2024-01-15T08:25:07;2.90;;;1.90;;
76176;SDS011;64938;47.696;8.066;2024-01-15T08:27:34;2.60;;;1.97;;
76176;SDS011;64938;47.696;8.066;2024-01-15T08:30:00;2.20;;;1.93;;
76176;SDS011;64938;47.696;8.066;2024-01-15T08:32:27;3.07;;;2.67;;
76176;SDS011;64938;47.696;8.066;2024-01-15T08:34:52;2.10;;;1.90;;
76176;SDS011;64938;47.696;8.066;2024-01-15T08:37:18;2.50;;;1.73;;
76176;SDS011;64938;47.696;8.066;2024-01-15T08:39:44;2.20;;;2.00;;
76176;SDS011;64938;47.696;8.066;2024-01-15T08:42:10;3.03;;;1.83;;
76176;SDS011;64938;47.696;8.066;2024-01-15T08:44:36;2.90;;;2.10;;
76176;SDS011;64938;47.696;8.066;2024-01-15T08:47:04;2.97;;;2.50;;
76176;SDS011;64938;47.696;8.066;2024-01-15T08:49:30;2.93;;;2.10;;
76176;SDS011;64938;47.696;8.066;2024-01-15T08:51:56;3.00;;;2.00;;
76176;SDS011;64938;47.696;8.066;2024-01-15T08:54:22;2.23;;;2.03;;
76176;SDS011;64938;47.696;8.066;2024-01-15T08:56:48;3.07;;;2.30;;
76176;SDS011;64938;47.696;8.066;2024-01-15T08:59:14;3.43;;;2.50;;
76176;SDS011;64938;47.696;8.066;2024-01-15T09:01:40;2.47;;;1.90;;
76176;SDS011;64938;47.696;8.066;2024-01-15T09:04:06;3.57;;;2.30;;
76176;SDS011;64938;47.696;8.066;2024-01-15T09:06:32;3.00;;;1.70;;
76176;SDS011;64938;47.696;8.066;2024-01-15T09:08:58;2.60;;;2.00;;
76176;SDS011;64938;47.696;8.066;2024-01-15T09:11:25;2.30;;;1.90;;
76176;SDS011;64938;47.696;8.066;2024-01-15T09:13:52;4.73;;;1.70;;
76176;SDS011;64938;47.696;8.066;2024-01-15T09:16:18;2.03;;;1.67;;
76176;SDS011;64938;47.696;8.066;2024-01-15T09:18:44;2.13;;;1.93;;
76176;SDS011;64938;47.696;8.066;2024-01-15T09:21:12;2.43;;;2.20;;
76176;SDS011;64938;47.696;8.066;2024-01-15T09:23:38;2.90;;;2.20;;
76176;SDS011;64938;47.696;8.066;2024-01-15T09:26:03;3.40;;;1.97;;
76176;SDS011;64938;47.696;8.066;2024-01-15T09:28:29;4.33;;;2.30;;
76176;SDS011;64938;47.696;8.066;2024-01-15T09:30:56;2.37;;;2.17;;
76176;SDS011;64938;47.696;8.066;2024-01-15T09:33:21;2.10;;;1.80;;
76176;SDS011;64938;47.696;8.066;2024-01-15T09:35:47;3.90;;;2.60;;
76176;SDS011;64938;47.696;8.066;2024-01-15T09:38:14;3.27;;;2.13;;
76176;SDS011;64938;47.696;8.066;2024-01-15T09:40:40;2.63;;;2.10;;
76176;SDS011;64938;47.696;8.066;2024-01-15T09:43:08;4.40;;;2.80;;
76176;SDS011;64938;47.696;8.066;2024-01-15T09:45:34;2.70;;;2.00;;
76176;SDS011;64938;47.696;8.066;2024-01-15T09:48:00;2.60;;;1.90;;
76176;SDS011;64938;47.696;8.066;2024-01-15T09:50:27;4.73;;;2.50;;
76176;SDS011;64938;47.696;8.066;2024-01-15T09:52:54;4.30;;;2.87;;
76176;SDS011;64938;47.696;8.066;2024-01-15T09:55:22;4.73;;;2.80;;
76176;SDS011;64938;47.696;8.066;2024-01-15T09:57:48;4.17;;;2.53;;
76176;SDS011;64938;47.696;8.066;2024-01-15T10:00:17;2.80;;;2.40;;
76176;SDS011;64938;47.696;8.066;2024-01-15T10:02:43;3.90;;;2.90;;
76176;SDS011;64938;47.696;8.066;2024-01-15T10:05:09;3.10;;;2.53;;
76176;SDS011;64938;47.696;8.066;2024-01-15T10:07:35;3.13;;;2.43;;
76176;SDS011;64938;47.696;8.066;2024-01-15T10:10:02;4.77;;;2.33;;
76176;SDS011;64938;47.696;8.066;2024-01-15T10:12:29;3.50;;;2.20;;
76176;SDS011;64938;47.696;8.066;2024-01-15T10:14:56;3.67;;;2.47;;
76176;SDS011;64938;47.696;8.066;2024-01-15T10:17:22;3.57;;;2.40;;
76176;SDS011;64938;47.696;8.066;2024-01-15T10:19:49;5.03;;;2.90;;
76176;SDS011;64938;47.696;8.066;2024-01-15T10:22:15;3.07;;;2.53;;
76176;SDS011;64938;47.696;8.066;2024-01-15T10:24:41;3.97;;;2.20;;
76176;SDS011;64938;47.696;8.066;2024-01-15T10:27:08;3.20;;;2.70;;
76176;SDS011;64938;47.696;8.066;2024-01-15T10:29:34;5.23;;;2.93;;
76176;SDS011;64938;47.696;8.066;2024-01-15T10:32:01;6.07;;;3.27;;
76176;SDS011;64938;47.696;8.066;2024-01-15T10:34:27;5.03;;;3.13;;
76176;SDS011;64938;47.696;8.066;2024-01-15T10:36:53;5.00;;;3.30;;
76176;SDS011;64938;47.696;8.066;2024-01-15T10:39:22;5.77;;;3.53;;
76176;SDS011;64938;47.696;8.066;2024-01-15T10:41:49;5.13;;;3.27;;
76176;SDS011;64938;47.696;8.066;2024-01-15T10:44:19;4.60;;;3.57;;
76176;SDS011;64938;47.696;8.066;2024-01-15T10:46:45;4.67;;;3.57;;
76176;SDS011;64938;47.696;8.066;2024-01-15T10:49:11;5.63;;;4.10;;
76176;SDS011;64938;47.696;8.066;2024-01-15T10:51:37;5.30;;;3.73;;
76176;SDS011;64938;47.696;8.066;2024-01-15T10:54:04;6.57;;;4.63;;
76176;SDS011;64938;47.696;8.066;2024-01-15T10:56:32;6.83;;;4.30;;
76176;SDS011;64938;47.696;8.066;2024-01-15T10:58:59;7.80;;;4.60;;
76176;SDS011;64938;47.696;8.066;2024-01-15T11:01:25;7.83;;;4.80;;
76176;SDS011;64938;47.696;8.066;2024-01-15T11:03:51;7.80;;;5.33;;
76176;SDS011;64938;47.696;8.066;2024-01-15T11:06:17;10.43;;;5.40;;
76176;SDS011;64938;47.696;8.066;2024-01-15T11:08:48;6.37;;;4.83;;
76176;SDS011;64938;47.696;8.066;2024-01-15T11:11:16;13.10;;;5.90;;
76176;SDS011;64938;47.696;8.066;2024-01-15T11:13:42;9.57;;;6.00;;
76176;SDS011;64938;47.696;8.066;2024-01-15T11:16:10;11.00;;;6.20;;
76176;SDS011;64938;47.696;8.066;2024-01-15T11:18:41;7.40;;;5.30;;
76176;SDS011;64938;47.696;8.066;2024-01-15T11:23:45;6.73;;;4.30;;
76176;SDS011;64938;47.696;8.066;2024-01-15T11:26:35;8.50;;;5.60;;
76176;SDS011;64938;47.696;8.066;2024-01-15T11:29:02;5.80;;;4.47;;
76176;SDS011;64938;47.696;8.066;2024-01-15T11:31:29;7.27;;;4.40;;
76176;SDS011;64938;47.696;8.066;2024-01-15T11:34:15;5.70;;;4.40;;
76176;SDS011;64938;47.696;8.066;2024-01-15T11:42:05;6.47;;;4.53;;
76176;SDS011;64938;47.696;8.066;2024-01-15T11:44:34;6.50;;;5.00;;
76176;SDS011;64938;47.696;8.066;2024-01-15T11:47:01;8.63;;;5.63;;
76176;SDS011;64938;47.696;8.066;2024-01-15T11:52:32;9.43;;;6.33;;
76176;SDS011;64938;47.696;8.066;2024-01-15T12:00:16;10.17;;;6.17;;
76176;SDS011;64938;47.696;8.066;2024-01-15T12:02:43;9.57;;;6.03;;
76176;SDS011;64938;47.696;8.066;2024-01-15T12:05:10;9.23;;;6.17;;
76176;SDS011;64938;47.696;8.066;2024-01-15T12:07:40;11.07;;;6.83;;
76176;SDS011;64938;47.696;8.066;2024-01-15T12:10:08;10.73;;;7.13;;
76176;SDS011;64938;47.696;8.066;2024-01-15T12:12:47;10.40;;;6.90;;
76176;SDS011;64938;47.696;8.066;2024-01-15T12:15:17;10.57;;;6.87;;
76176;SDS011;64938;47.696;8.066;2024-01-15T12:17:43;12.27;;;8.50;;
76176;SDS011;64938;47.696;8.066;2024-01-15T12:20:09;14.20;;;7.90;;
76176;SDS011;64938;47.696;8.066;2024-01-15T12:22:36;9.73;;;6.90;;
76176;SDS011;64938;47.696;8.066;2024-01-15T12:25:03;13.20;;;8.03;;
76176;SDS011;64938;47.696;8.066;2024-01-15T12:27:29;15.70;;;8.83;;
76176;SDS011;64938;47.696;8.066;2024-01-15T12:29:55;12.50;;;8.53;;
76176;SDS011;64938;47.696;8.066;2024-01-15T12:32:22;12.57;;;7.70;;
76176;SDS011;64938;47.696;8.066;2024-01-15T12:34:49;9.90;;;6.90;;
76176;SDS011;64938;47.696;8.066;2024-01-15T12:37:18;12.00;;;8.60;;
76176;SDS011;64938;47.696;8.066;2024-01-15T12:39:45;10.73;;;6.80;;
76176;SDS011;64938;47.696;8.066;2024-01-15T12:42:13;11.80;;;6.60;;
76176;SDS011;64938;47.696;8.066;2024-01-15T12:44:44;10.93;;;7.30;;
76176;SDS011;64938;47.696;8.066;2024-01-15T12:47:10;9.03;;;7.30;;
76176;SDS011;64938;47.696;8.066;2024-01-15T12:49:37;11.60;;;6.77;;
76176;SDS011;64938;47.696;8.066;2024-01-15T12:52:03;9.20;;;6.13;;
76176;SDS011;64938;47.696;8.066;2024-01-15T12:54:29;8.73;;;6.33;;
76176;SDS011;64938;47.696;8.066;2024-01-15T12:56:55;9.27;;;5.90;;
76176;SDS011;64938;47.696;8.066;2024-01-15T12:59:21;9.17;;;6.10;;
76176;SDS011;64938;47.696;8.066;2024-01-15T13:01:47;8.40;;;5.97;;
76176;SDS011;64938;47.696;8.066;2024-01-15T13:04:21;6.57;;;4.90;;
76176;SDS011;64938;47.696;8.066;2024-01-15T13:06:49;8.97;;;6.03;;
76176;SDS011;64938;47.696;8.066;2024-01-15T13:09:15;7.57;;;4.90;;
76176;SDS011;64938;47.696;8.066;2024-01-15T13:11:43;7.03;;;5.33;;
76176;SDS011;64938;47.696;8.066;2024-01-15T13:14:10;7.13;;;4.73;;
76176;SDS011;64938;47.696;8.066;2024-01-15T13:16:36;7.17;;;4.93;;
76176;SDS011;64938;47.696;8.066;2024-01-15T13:19:02;9.47;;;4.80;;
76176;SDS011;64938;47.696;8.066;2024-01-15T13:21:29;7.60;;;4.87;;
76176;SDS011;64938;47.696;8.066;2024-01-15T13:23:55;4.87;;;3.90;;
76176;SDS011;64938;47.696;8.066;2024-01-15T13:26:21;8.27;;;5.17;;
76176;SDS011;64938;47.696;8.066;2024-01-15T13:28:47;8.10;;;5.60;;
76176;SDS011;64938;47.696;8.066;2024-01-15T13:31:14;7.37;;;4.73;;
76176;SDS011;64938;47.696;8.066;2024-01-15T13:33:40;8.97;;;5.63;;
76176;SDS011;64938;47.696;8.066;2024-01-15T13:36:06;10.40;;;5.13;;
76176;SDS011;64938;47.696;8.066;2024-01-15T13:38:37;8.73;;;5.73;;
76176;SDS011;64938;47.696;8.066;2024-01-15T13:41:04;8.33;;;5.93;;
76176;SDS011;64938;47.696;8.066;2024-01-15T13:43:31;7.57;;;5.20;;
76176;SDS011;64938;47.696;8.066;2024-01-15T13:45:57;8.07;;;5.20;;
76176;SDS011;64938;47.696;8.066;2024-01-15T13:48:23;7.70;;;5.00;;
76176;SDS011;64938;47.696;8.066;2024-01-15T13:50:49;7.60;;;5.10;;
76176;SDS011;64938;47.696;8.066;2024-01-15T13:53:16;8.53;;;5.57;;
76176;SDS011;64938;47.696;8.066;2024-01-15T13:55:42;8.77;;;6.10;;
76176;SDS011;64938;47.696;8.066;2024-01-15T13:58:08;7.90;;;5.17;;
76176;SDS011;64938;47.696;8.066;2024-01-15T14:00:34;8.20;;;5.33;;
76176;SDS011;64938;47.696;8.066;2024-01-15T14:03:00;10.10;;;5.77;;
76176;SDS011;64938;47.696;8.066;2024-01-15T14:05:26;10.00;;;5.80;;
76176;SDS011;64938;47.696;8.066;2024-01-15T14:07:51;6.83;;;5.00;;
76176;SDS011;64938;47.696;8.066;2024-01-15T14:10:18;9.60;;;6.33;;
76176;SDS011;64938;47.696;8.066;2024-01-15T14:12:44;7.83;;;4.80;;
76176;SDS011;64938;47.696;8.066;2024-01-15T14:15:10;9.13;;;4.03;;
76176;SDS011;64938;47.696;8.066;2024-01-15T14:17:37;6.50;;;4.90;;
76176;SDS011;64938;47.696;8.066;2024-01-15T14:20:03;7.47;;;4.50;;
76176;SDS011;64938;47.696;8.066;2024-01-15T14:22:30;6.03;;;3.80;;
76176;SDS011;64938;47.696;8.066;2024-01-15T14:24:56;6.67;;;4.40;;
76176;SDS011;64938;47.696;8.066;2024-01-15T14:27:23;11.50;;;4.53;;
76176;SDS011;64938;47.696;8.066;2024-01-15T14:29:49;6.53;;;3.97;;
76176;SDS011;64938;47.696;8.066;2024-01-15T14:32:15;7.50;;;4.80;;
76176;SDS011;64938;47.696;8.066;2024-01-15T14:34:41;5.30;;;4.37;;
76176;SDS011;64938;47.696;8.066;2024-01-15T14:37:07;6.60;;;4.33;;
76176;SDS011;64938;47.696;8.066;2024-01-15T14:39:33;8.33;;;4.83;;
76176;SDS011;64938;47.696;8.066;2024-01-15T14:41:59;9.70;;;5.40;;
76176;SDS011;64938;47.696;8.066;2024-01-15T14:44:26;8.20;;;4.40;;
76176;SDS011;64938;47.696;8.066;2024-01-15T14:46:56;5.63;;;3.43;;
76176;SDS011;64938;47.696;8.066;2024-01-15T14:49:24;5.87;;;4.40;;
76176;SDS011;64938;47.696;8.066;2024-01-15T14:51:50;6.80;;;5.23;;
76176;SDS011;64938;47.696;8.066;2024-01-15T14:54:16;7.67;;;5.30;;
76176;SDS011;64938;47.696;8.066;2024-01-15T14:56:42;7.70;;;4.37;;
76176;SDS011;64938;47.696;8.066;2024-01-15T14:59:08;8.57;;;4.77;;
76176;SDS011;64938;47.696;8.066;2024-01-15T15:01:34;5.57;;;3.90;;